sensor_id;sensor_type;location;lat;lon;timestamp;pressure;altitude;pressure_sealevel;temperature;humidity
58785;BME280;44557;51.862;19.378;2023-06-26T00:00:54;99213.34;;;19.21;63.98
58785;BME280;44557;51.862;19.378;2023-06-26T00:03:04;99210.73;;;19.15;62.99
58785;BME280;44557;51.862;19.378;2023-06-26T00:05:06;99207.98;;;19.22;63.63
58785;BME280;44557;51.862;19.378;2023-06-26T00:07:09;99210.77;;;19.23;62.96
58785;BME280;44557;51.862;19.378;2023-06-26T00:09:11;99206.72;;;19.18;62.88
58785;BME280;44557;51.862;19.378;2023-06-26T00:11:13;99206.05;;;19.10;63.51
58785;BME280;44557;51.862;19.378;2023-06-26T00:13:15;99207.20;;;19.19;63.35
58785;BME280;44557;51.862;19.378;2023-06-26T00:15:16;99207.48;;;19.24;62.69
58785;BME280;44557;51.862;19.378;2023-06-26T00:17:18;99207.45;;;19.16;63.82
58785;BME280;44557;51.862;19.378;2023-06-26T00:19:20;99205.28;;;19.19;63.65
58785;BME280;44557;51.862;19.378;2023-06-26T00:21:22;99203.67;;;19.07;64.73
58785;BME280;44557;51.862;19.378;2023-06-26T00:23:24;99204.55;;;19.08;64.26
58785;BME280;44557;51.862;19.378;2023-06-26T00:25:26;99203.43;;;18.91;64.65
58785;BME280;44557;51.862;19.378;2023-06-26T00:27:27;99201.65;;;18.78;64.80
58785;BME280;44557;51.862;19.378;2023-06-26T00:29:29;99201.23;;;18.81;64.80
58785;BME280;44557;51.862;19.378;2023-06-26T00:31:31;99201.58;;;18.91;63.76
58785;BME280;44557;51.862;19.378;2023-06-26T00:33:32;99204.40;;;19.06;63.06
58785;BME280;44557;51.862;19.378;2023-06-26T00:35:34;99202.08;;;19.03;63.36
58785;BME280;44557;51.862;19.378;2023-06-26T00:37:36;99204.56;;;18.86;63.46
58785;BME280;44557;51.862;19.378;2023-06-26T00:39:38;99203.23;;;18.97;63.14
58785;BME280;44557;51.862;19.378;2023-06-26T00:41:39;99201.02;;;19.10;63.17
58785;BME280;44557;51.862;19.378;2023-06-26T00:43:41;99202.02;;;19.01;63.45
58785;BME280;44557;51.862;19.378;2023-06-26T00:45:43;99197.10;;;18.94;63.59
58785;BME280;44557;51.862;19.378;2023-06-26T00:47:44;99197.94;;;19.05;63.66
58785;BME280;44557;51.862;19.378;2023-06-26T00:49:46;99192.13;;;18.87;64.38
58785;BME280;44557;51.862;19.378;2023-06-26T00:51:48;99194.58;;;19.07;63.65
58785;BME280;44557;51.862;19.378;2023-06-26T00:53:50;99191.30;;;18.90;64.62
58785;BME280;44557;51.862;19.378;2023-06-26T00:55:52;99187.64;;;18.72;65.01
58785;BME280;44557;51.862;19.378;2023-06-26T00:57:55;99187.39;;;18.73;64.69
58785;BME280;44557;51.862;19.378;2023-06-26T00:59:57;99183.70;;;18.60;65.30
58785;BME280;44557;51.862;19.378;2023-06-26T01:01:58;99181.77;;;18.58;65.41
58785;BME280;44557;51.862;19.378;2023-06-26T01:04:00;99184.11;;;18.93;63.90
58785;BME280;44557;51.862;19.378;2023-06-26T01:06:02;99187.85;;;18.78;64.32
58785;BME280;44557;51.862;19.378;2023-06-26T01:08:04;99183.92;;;18.96;63.84
58785;BME280;44557;51.862;19.378;2023-06-26T01:10:06;99184.27;;;18.92;63.76
58785;BME280;44557;51.862;19.378;2023-06-26T01:12:08;99184.02;;;18.80;64.21
58785;BME280;44557;51.862;19.378;2023-06-26T01:14:10;99181.30;;;18.80;64.13
58785;BME280;44557;51.862;19.378;2023-06-26T01:16:12;99178.48;;;18.71;64.84
58785;BME280;44557;51.862;19.378;2023-06-26T01:18:16;99174.39;;;18.07;67.47
58785;BME280;44557;51.862;19.378;2023-06-26T01:20:18;99171.45;;;18.09;67.43
58785;BME280;44557;51.862;19.378;2023-06-26T01:25:15;99172.61;;;18.28;66.81
58785;BME280;44557;51.862;19.378;2023-06-26T01:27:21;99174.50;;;18.33;66.59
58785;BME280;44557;51.862;19.378;2023-06-26T01:29:24;99173.60;;;18.50;65.75
58785;BME280;44557;51.862;19.378;2023-06-26T01:31:27;99171.35;;;18.52;65.24
58785;BME280;44557;51.862;19.378;2023-06-26T01:33:31;99170.27;;;18.36;66.19
58785;BME280;44557;51.862;19.378;2023-06-26T01:35:32;99162.45;;;18.45;65.55
58785;BME280;44557;51.862;19.378;2023-06-26T01:37:34;99162.11;;;18.18;66.78
58785;BME280;44557;51.862;19.378;2023-06-26T01:39:36;99160.73;;;18.36;66.48
58785;BME280;44557;51.862;19.378;2023-06-26T01:41:38;99159.95;;;18.22;67.20
58785;BME280;44557;51.862;19.378;2023-06-26T01:44:28;99155.73;;;18.15;67.50
58785;BME280;44557;51.862;19.378;2023-06-26T01:46:58;99154.23;;;18.14;68.30
58785;BME280;44557;51.862;19.378;2023-06-26T01:49:36;99154.24;;;18.12;68.44
58785;BME280;44557;51.862;19.378;2023-06-26T01:51:40;99154.70;;;18.21;68.28
58785;BME280;44557;51.862;19.378;2023-06-26T01:53:46;99154.10;;;18.34;67.97
58785;BME280;44557;51.862;19.378;2023-06-26T01:55:53;99152.26;;;18.09;69.06
58785;BME280;44557;51.862;19.378;2023-06-26T01:57:58;99152.57;;;18.10;69.32
58785;BME280;44557;51.862;19.378;2023-06-26T02:00:01;99146.28;;;18.07;69.40
58785;BME280;44557;51.862;19.378;2023-06-26T02:02:07;99145.87;;;18.13;69.26
58785;BME280;44557;51.862;19.378;2023-06-26T02:04:09;99147.67;;;17.88;70.56
58785;BME280;44557;51.862;19.378;2023-06-26T02:06:11;99145.48;;;18.01;70.91
58785;BME280;44557;51.862;19.378;2023-06-26T02:08:14;99144.02;;;17.92;71.31
58785;BME280;44557;51.862;19.378;2023-06-26T02:10:16;99146.86;;;18.01;71.10
58785;BME280;44557;51.862;19.378;2023-06-26T02:12:18;99146.15;;;17.93;71.05
58785;BME280;44557;51.862;19.378;2023-06-26T02:14:20;99144.55;;;17.90;71.64
58785;BME280;44557;51.862;19.378;2023-06-26T02:16:22;99151.02;;;17.84;71.87
58785;BME280;44557;51.862;19.378;2023-06-26T02:18:24;99145.75;;;17.98;71.22
58785;BME280;44557;51.862;19.378;2023-06-26T02:20:26;99146.25;;;17.75;72.07
58785;BME280;44557;51.862;19.378;2023-06-26T02:22:28;99144.02;;;17.78;72.11
58785;BME280;44557;51.862;19.378;2023-06-26T02:24:30;99143.30;;;17.72;72.06
58785;BME280;44557;51.862;19.378;2023-06-26T02:26:32;99142.25;;;17.85;71.75
58785;BME280;44557;51.862;19.378;2023-06-26T02:28:33;99137.08;;;17.92;71.64
58785;BME280;44557;51.862;19.378;2023-06-26T02:30:36;99139.16;;;17.84;72.04
58785;BME280;44557;51.862;19.378;2023-06-26T02:32:38;99136.46;;;17.89;71.56
58785;BME280;44557;51.862;19.378;2023-06-26T02:34:40;99138.34;;;17.99;71.34
58785;BME280;44557;51.862;19.378;2023-06-26T02:36:41;99139.32;;;17.65;72.03
58785;BME280;44557;51.862;19.378;2023-06-26T02:38:43;99139.10;;;17.61;72.60
58785;BME280;44557;51.862;19.378;2023-06-26T02:40:45;99141.63;;;17.64;72.50
58785;BME280;44557;51.862;19.378;2023-06-26T02:42:47;99141.24;;;17.73;72.14
58785;BME280;44557;51.862;19.378;2023-06-26T02:44:49;99140.05;;;17.62;72.45
58785;BME280;44557;51.862;19.378;2023-06-26T02:46:51;99143.23;;;17.55;72.58
58785;BME280;44557;51.862;19.378;2023-06-26T02:48:53;99144.16;;;17.78;71.71
58785;BME280;44557;51.862;19.378;2023-06-26T02:50:55;99146.33;;;17.58;72.40
58785;BME280;44557;51.862;19.378;2023-06-26T02:52:56;99149.52;;;17.63;72.35
58785;BME280;44557;51.862;19.378;2023-06-26T02:54:58;99148.40;;;17.79;71.89
58785;BME280;44557;51.862;19.378;2023-06-26T02:57:00;99147.36;;;17.78;72.07
58785;BME280;44557;51.862;19.378;2023-06-26T02:59:02;99153.18;;;17.70;72.68
58785;BME280;44557;51.862;19.378;2023-06-26T03:01:05;99153.81;;;17.80;72.41
58785;BME280;44557;51.862;19.378;2023-06-26T03:03:07;99159.13;;;17.90;72.07
58785;BME280;44557;51.862;19.378;2023-06-26T03:05:09;99154.61;;;17.79;72.41
58785;BME280;44557;51.862;19.378;2023-06-26T03:07:11;99156.04;;;17.77;72.72
58785;BME280;44557;51.862;19.378;2023-06-26T03:09:19;99153.64;;;17.83;72.38
58785;BME280;44557;51.862;19.378;2023-06-26T03:11:21;99152.60;;;17.98;72.14
58785;BME280;44557;51.862;19.378;2023-06-26T03:13:23;99151.09;;;17.95;72.17
58785;BME280;44557;51.862;19.378;2023-06-26T03:15:25;99151.94;;;18.06;71.67
58785;BME280;44557;51.862;19.378;2023-06-26T03:17:26;99156.52;;;17.88;72.51
58785;BME280;44557;51.862;19.378;2023-06-26T03:19:28;99156.59;;;17.87;72.57
58785;BME280;44557;51.862;19.378;2023-06-26T03:23:39;99157.54;;;17.96;72.49
58785;BME280;44557;51.862;19.378;2023-06-26T03:25:42;99156.34;;;18.03;72.20
58785;BME280;44557;51.862;19.378;2023-06-26T03:27:43;99154.68;;;17.91;72.65
58785;BME280;44557;51.862;19.378;2023-06-26T03:29:46;99154.52;;;17.92;72.65
58785;BME280;44557;51.862;19.378;2023-06-26T03:31:47;99152.20;;;17.89;72.65
58785;BME280;44557;51.862;19.378;2023-06-26T03:33:49;99150.86;;;17.85;73.18
58785;BME280;44557;51.862;19.378;2023-06-26T03:35:51;99150.68;;;17.99;72.59
58785;BME280;44557;51.862;19.378;2023-06-26T03:37:53;99151.32;;;18.00;72.86
58785;BME280;44557;51.862;19.378;2023-06-26T03:39:55;99157.54;;;17.99;72.71
58785;BME280;44557;51.862;19.378;2023-06-26T03:41:57;99156.95;;;18.11;72.41
58785;BME280;44557;51.862;19.378;2023-06-26T03:44:01;99156.20;;;18.26;71.94
58785;BME280;44557;51.862;19.378;2023-06-26T03:46:04;99155.89;;;18.22;71.77
58785;BME280;44557;51.862;19.378;2023-06-26T03:48:06;99157.63;;;18.26;71.67
58785;BME280;44557;51.862;19.378;2023-06-26T03:50:09;99152.60;;;18.29;71.66
58785;BME280;44557;51.862;19.378;2023-06-26T03:52:11;99151.68;;;18.20;72.06
58785;BME280;44557;51.862;19.378;2023-06-26T03:54:13;99151.60;;;18.18;72.12
58785;BME280;44557;51.862;19.378;2023-06-26T03:56:14;99151.23;;;18.05;73.01
58785;BME280;44557;51.862;19.378;2023-06-26T03:58:17;99150.16;;;18.23;72.44
58785;BME280;44557;51.862;19.378;2023-06-26T04:00:19;99144.95;;;18.04;73.39
58785;BME280;44557;51.862;19.378;2023-06-26T04:02:21;99141.83;;;18.07;73.37
58785;BME280;44557;51.862;19.378;2023-06-26T04:04:28;99140.39;;;18.39;71.73
58785;BME280;44557;51.862;19.378;2023-06-26T04:06:29;99140.24;;;18.34;71.82
58785;BME280;44557;51.862;19.378;2023-06-26T04:08:32;99142.04;;;18.17;72.81
58785;BME280;44557;51.862;19.378;2023-06-26T04:10:35;99143.73;;;18.12;72.96
58785;BME280;44557;51.862;19.378;2023-06-26T04:12:38;99141.80;;;18.23;72.48
58785;BME280;44557;51.862;19.378;2023-06-26T04:14:41;99137.83;;;18.46;71.72
58785;BME280;44557;51.862;19.378;2023-06-26T04:16:43;99137.14;;;18.32;72.31
58785;BME280;44557;51.862;19.378;2023-06-26T04:18:45;99142.79;;;18.31;72.63
58785;BME280;44557;51.862;19.378;2023-06-26T04:21:11;99140.36;;;18.64;71.45
58785;BME280;44557;51.862;19.378;2023-06-26T04:23:13;99139.51;;;18.66;71.11
58785;BME280;44557;51.862;19.378;2023-06-26T04:25:15;99142.07;;;18.80;70.91
58785;BME280;44557;51.862;19.378;2023-06-26T04:27:17;99145.54;;;18.73;71.12
58785;BME280;44557;51.862;19.378;2023-06-26T04:29:19;99145.96;;;18.67;71.54
58785;BME280;44557;51.862;19.378;2023-06-26T04:31:20;99147.45;;;18.86;70.94
58785;BME280;44557;51.862;19.378;2023-06-26T04:33:25;99146.94;;;19.07;70.19
58785;BME280;44557;51.862;19.378;2023-06-26T04:35:27;99146.94;;;19.09;70.08
58785;BME280;44557;51.862;19.378;2023-06-26T04:37:29;99142.11;;;19.15;69.96
58785;BME280;44557;51.862;19.378;2023-06-26T04:39:31;99143.74;;;19.23;70.18
58785;BME280;44557;51.862;19.378;2023-06-26T04:41:32;99143.13;;;19.30;70.68
58785;BME280;44557;51.862;19.378;2023-06-26T04:43:34;99143.33;;;19.39;70.29
58785;BME280;44557;51.862;19.378;2023-06-26T04:45:37;99145.95;;;19.39;70.42
58785;BME280;44557;51.862;19.378;2023-06-26T04:47:38;99143.30;;;19.64;69.22
58785;BME280;44557;51.862;19.378;2023-06-26T04:49:41;99145.65;;;19.68;68.75
58785;BME280;44557;51.862;19.378;2023-06-26T04:51:47;99143.42;;;19.75;68.15
58785;BME280;44557;51.862;19.378;2023-06-26T04:53:50;99141.39;;;19.80;68.22
58785;BME280;44557;51.862;19.378;2023-06-26T04:55:52;99144.55;;;19.83;67.79
58785;BME280;44557;51.862;19.378;2023-06-26T04:57:54;99144.23;;;19.93;67.79
58785;BME280;44557;51.862;19.378;2023-06-26T04:59:56;99143.39;;;19.95;67.60
58785;BME280;44557;51.862;19.378;2023-06-26T05:01:57;99146.02;;;20.15;67.05
58785;BME280;44557;51.862;19.378;2023-06-26T05:03:59;99145.22;;;20.30;66.30
58785;BME280;44557;51.862;19.378;2023-06-26T05:06:01;99145.80;;;20.43;65.96
58785;BME280;44557;51.862;19.378;2023-06-26T05:08:27;99143.13;;;20.60;65.62
58785;BME280;44557;51.862;19.378;2023-06-26T05:10:28;99140.98;;;20.65;65.56
58785;BME280;44557;51.862;19.378;2023-06-26T05:12:30;99141.99;;;20.90;64.89
58785;BME280;44557;51.862;19.378;2023-06-26T05:14:31;99136.95;;;20.97;64.50
58785;BME280;44557;51.862;19.378;2023-06-26T05:16:33;99138.48;;;20.90;64.20
58785;BME280;44557;51.862;19.378;2023-06-26T05:18:36;99138.17;;;20.96;63.98
58785;BME280;44557;51.862;19.378;2023-06-26T05:20:38;99139.39;;;21.07;63.56
58785;BME280;44557;51.862;19.378;2023-06-26T05:22:40;99140.16;;;21.41;62.34
58785;BME280;44557;51.862;19.378;2023-06-26T05:24:42;99140.82;;;21.50;61.97
58785;BME280;44557;51.862;19.378;2023-06-26T05:26:47;99139.48;;;21.59;61.70
58785;BME280;44557;51.862;19.378;2023-06-26T05:28:49;99135.20;;;21.46;62.30
58785;BME280;44557;51.862;19.378;2023-06-26T05:30:51;99133.64;;;21.48;62.59
58785;BME280;44557;51.862;19.378;2023-06-26T05:32:54;99138.02;;;21.49;62.97
58785;BME280;44557;51.862;19.378;2023-06-26T05:34:57;99136.63;;;21.76;62.03
58785;BME280;44557;51.862;19.378;2023-06-26T05:37:00;99134.53;;;22.01;60.36
58785;BME280;44557;51.862;19.378;2023-06-26T05:39:02;99132.80;;;22.25;59.31
58785;BME280;44557;51.862;19.378;2023-06-26T05:41:05;99136.12;;;21.87;60.10
58785;BME280;44557;51.862;19.378;2023-06-26T05:43:07;99134.25;;;22.12;59.88
58785;BME280;44557;51.862;19.378;2023-06-26T05:45:10;99132.18;;;22.15;60.34
58785;BME280;44557;51.862;19.378;2023-06-26T05:47:12;99134.58;;;22.28;60.47
58785;BME280;44557;51.862;19.378;2023-06-26T05:49:14;99133.37;;;22.44;60.02
58785;BME280;44557;51.862;19.378;2023-06-26T05:51:16;99130.25;;;22.57;59.89
58785;BME280;44557;51.862;19.378;2023-06-26T05:53:18;99131.14;;;22.76;59.37
58785;BME280;44557;51.862;19.378;2023-06-26T05:55:20;99130.08;;;22.99;58.60
58785;BME280;44557;51.862;19.378;2023-06-26T05:57:22;99126.11;;;23.04;57.77
58785;BME280;44557;51.862;19.378;2023-06-26T05:59:23;99127.73;;;23.14;57.71
58785;BME280;44557;51.862;19.378;2023-06-26T06:01:26;99124.36;;;23.22;57.18
58785;BME280;44557;51.862;19.378;2023-06-26T06:03:27;99123.70;;;23.15;57.15
58785;BME280;44557;51.862;19.378;2023-06-26T06:05:29;99124.33;;;23.33;57.08
58785;BME280;44557;51.862;19.378;2023-06-26T06:07:34;99121.95;;;23.38;57.36
58785;BME280;44557;51.862;19.378;2023-06-26T06:09:36;99122.10;;;23.56;57.12
58785;BME280;44557;51.862;19.378;2023-06-26T06:11:39;99118.80;;;23.68;56.43
58785;BME280;44557;51.862;19.378;2023-06-26T06:13:41;99121.08;;;23.77;55.39
58785;BME280;44557;51.862;19.378;2023-06-26T06:15:42;99114.92;;;23.72;55.74
58785;BME280;44557;51.862;19.378;2023-06-26T06:17:44;99118.99;;;23.90;56.23
58785;BME280;44557;51.862;19.378;2023-06-26T06:19:46;99119.46;;;24.13;55.95
58785;BME280;44557;51.862;19.378;2023-06-26T06:21:47;99117.33;;;24.34;55.10
58785;BME280;44557;51.862;19.378;2023-06-26T06:23:49;99116.55;;;23.93;55.41
58785;BME280;44557;51.862;19.378;2023-06-26T06:25:51;99111.25;;;23.75;55.95
58785;BME280;44557;51.862;19.378;2023-06-26T06:27:52;99112.80;;;23.87;56.64
58785;BME280;44557;51.862;19.378;2023-06-26T06:29:54;99110.61;;;24.12;55.74
58785;BME280;44557;51.862;19.378;2023-06-26T06:31:56;99110.06;;;24.40;54.39
58785;BME280;44557;51.862;19.378;2023-06-26T06:33:58;99110.83;;;24.36;54.42
58785;BME280;44557;51.862;19.378;2023-06-26T06:36:00;99110.66;;;24.61;53.97
58785;BME280;44557;51.862;19.378;2023-06-26T06:38:01;99110.54;;;24.66;52.63
58785;BME280;44557;51.862;19.378;2023-06-26T06:40:05;99110.90;;;24.95;52.35
58785;BME280;44557;51.862;19.378;2023-06-26T06:42:07;99109.48;;;25.01;52.18
58785;BME280;44557;51.862;19.378;2023-06-26T06:44:10;99109.19;;;25.31;50.97
58785;BME280;44557;51.862;19.378;2023-06-26T06:46:11;99104.86;;;25.26;50.36
58785;BME280;44557;51.862;19.378;2023-06-26T06:48:13;99108.57;;;25.20;50.65
58785;BME280;44557;51.862;19.378;2023-06-26T06:50:15;99107.02;;;25.18;50.17
58785;BME280;44557;51.862;19.378;2023-06-26T06:52:17;99110.42;;;24.92;48.81
58785;BME280;44557;51.862;19.378;2023-06-26T06:54:19;99110.80;;;24.90;47.13
58785;BME280;44557;51.862;19.378;2023-06-26T06:56:21;99111.91;;;24.91;46.90
58785;BME280;44557;51.862;19.378;2023-06-26T06:58:22;99112.00;;;24.96;46.89
58785;BME280;44557;51.862;19.378;2023-06-26T07:00:24;99111.24;;;24.91;48.13
58785;BME280;44557;51.862;19.378;2023-06-26T07:02:26;99109.19;;;25.21;48.56
58785;BME280;44557;51.862;19.378;2023-06-26T07:04:27;99107.71;;;25.19;47.94
58785;BME280;44557;51.862;19.378;2023-06-26T07:06:29;99104.30;;;25.25;46.63
58785;BME280;44557;51.862;19.378;2023-06-26T07:08:31;99104.41;;;25.37;46.04
58785;BME280;44557;51.862;19.378;2023-06-26T07:10:34;99102.77;;;25.30;45.62
58785;BME280;44557;51.862;19.378;2023-06-26T07:12:36;99104.41;;;25.55;44.74
58785;BME280;44557;51.862;19.378;2023-06-26T07:14:39;99103.09;;;25.61;44.59
58785;BME280;44557;51.862;19.378;2023-06-26T07:16:40;99104.32;;;25.48;44.98
58785;BME280;44557;51.862;19.378;2023-06-26T07:18:42;99104.98;;;25.55;44.16
58785;BME280;44557;51.862;19.378;2023-06-26T07:20:45;99101.20;;;25.78;43.20
58785;BME280;44557;51.862;19.378;2023-06-26T07:22:46;99102.08;;;25.74;43.09
58785;BME280;44557;51.862;19.378;2023-06-26T07:24:48;99099.59;;;25.64;42.78
58785;BME280;44557;51.862;19.378;2023-06-26T07:26:50;99100.42;;;25.44;43.45
58785;BME280;44557;51.862;19.378;2023-06-26T07:28:52;99102.79;;;25.56;43.85
58785;BME280;44557;51.862;19.378;2023-06-26T07:30:54;99100.11;;;25.46;43.86
58785;BME280;44557;51.862;19.378;2023-06-26T07:32:56;99105.58;;;25.38;43.57
58785;BME280;44557;51.862;19.378;2023-06-26T07:34:58;99104.98;;;25.65;43.27
58785;BME280;44557;51.862;19.378;2023-06-26T07:37:00;99101.58;;;25.72;43.19
58785;BME280;44557;51.862;19.378;2023-06-26T07:39:02;99097.66;;;25.93;42.43
58785;BME280;44557;51.862;19.378;2023-06-26T07:41:04;99100.73;;;25.91;42.12
58785;BME280;44557;51.862;19.378;2023-06-26T07:43:06;99100.41;;;26.10;42.28
58785;BME280;44557;51.862;19.378;2023-06-26T07:45:08;99097.29;;;25.98;41.65
58785;BME280;44557;51.862;19.378;2023-06-26T07:47:13;99094.98;;;26.41;41.80
58785;BME280;44557;51.862;19.378;2023-06-26T07:49:15;99096.17;;;26.45;40.65
58785;BME280;44557;51.862;19.378;2023-06-26T07:51:16;99094.02;;;26.35;41.25
58785;BME280;44557;51.862;19.378;2023-06-26T07:53:18;99099.59;;;26.49;41.00
58785;BME280;44557;51.862;19.378;2023-06-26T07:55:19;99099.06;;;26.63;40.80
58785;BME280;44557;51.862;19.378;2023-06-26T07:57:21;99091.63;;;26.59;41.00
58785;BME280;44557;51.862;19.378;2023-06-26T07:59:25;99094.40;;;26.25;40.82
58785;BME280;44557;51.862;19.378;2023-06-26T08:01:27;99093.64;;;26.49;40.67
58785;BME280;44557;51.862;19.378;2023-06-26T08:03:28;99095.86;;;26.58;40.11
58785;BME280;44557;51.862;19.378;2023-06-26T08:05:30;99093.40;;;26.57;41.07
58785;BME280;44557;51.862;19.378;2023-06-26T08:07:31;99097.44;;;26.63;40.25
58785;BME280;44557;51.862;19.378;2023-06-26T08:09:33;99097.30;;;26.71;40.49
58785;BME280;44557;51.862;19.378;2023-06-26T08:11:35;99095.60;;;26.56;40.32
58785;BME280;44557;51.862;19.378;2023-06-26T08:13:37;99094.65;;;26.69;40.02
58785;BME280;44557;51.862;19.378;2023-06-26T08:15:38;99094.36;;;26.55;40.06
58785;BME280;44557;51.862;19.378;2023-06-26T08:17:40;99093.71;;;26.47;40.08
58785;BME280;44557;51.862;19.378;2023-06-26T08:19:42;99092.92;;;26.48;40.24
58785;BME280;44557;51.862;19.378;2023-06-26T08:21:45;99086.54;;;26.77;41.65
58785;BME280;44557;51.862;19.378;2023-06-26T08:23:47;99088.44;;;27.06;40.47
58785;BME280;44557;51.862;19.378;2023-06-26T08:25:49;99085.13;;;26.73;39.84
58785;BME280;44557;51.862;19.378;2023-06-26T08:27:50;99086.33;;;26.56;39.73
58785;BME280;44557;51.862;19.378;2023-06-26T08:29:54;99085.24;;;26.50;39.57
58785;BME280;44557;51.862;19.378;2023-06-26T08:31:55;99085.29;;;26.34;39.95
58785;BME280;44557;51.862;19.378;2023-06-26T08:33:57;99086.34;;;26.66;39.60
58785;BME280;44557;51.862;19.378;2023-06-26T08:35:59;99084.90;;;26.58;39.16
58785;BME280;44557;51.862;19.378;2023-06-26T08:38:00;99084.05;;;26.84;39.22
58785;BME280;44557;51.862;19.378;2023-06-26T08:40:02;99081.48;;;27.40;38.77
58785;BME280;44557;51.862;19.378;2023-06-26T08:42:04;99079.97;;;27.50;38.17
58785;BME280;44557;51.862;19.378;2023-06-26T08:44:06;99075.71;;;27.41;38.93
58785;BME280;44557;51.862;19.378;2023-06-26T08:46:07;99080.13;;;27.60;39.03
58785;BME280;44557;51.862;19.378;2023-06-26T08:48:10;99076.39;;;27.70;38.68
58785;BME280;44557;51.862;19.378;2023-06-26T08:50:13;99080.69;;;27.24;38.85
58785;BME280;44557;51.862;19.378;2023-06-26T08:52:33;99082.77;;;26.56;40.74
58785;BME280;44557;51.862;19.378;2023-06-26T08:54:42;99081.55;;;26.92;40.91
58785;BME280;44557;51.862;19.378;2023-06-26T08:56:48;99075.86;;;26.89;40.04
58785;BME280;44557;51.862;19.378;2023-06-26T08:58:51;99078.10;;;27.33;39.28
58785;BME280;44557;51.862;19.378;2023-06-26T09:00:53;99074.42;;;27.66;38.51
58785;BME280;44557;51.862;19.378;2023-06-26T09:02:58;99071.39;;;27.69;38.50
58785;BME280;44557;51.862;19.378;2023-06-26T09:05:01;99073.48;;;27.49;38.07
58785;BME280;44557;51.862;19.378;2023-06-26T09:07:03;99069.69;;;27.64;37.43
58785;BME280;44557;51.862;19.378;2023-06-26T09:09:05;99069.23;;;27.76;37.50
58785;BME280;44557;51.862;19.378;2023-06-26T09:11:07;99067.78;;;28.19;37.91
58785;BME280;44557;51.862;19.378;2023-06-26T09:13:09;99069.44;;;28.02;37.82
58785;BME280;44557;51.862;19.378;2023-06-26T09:15:14;99069.39;;;27.78;37.34
58785;BME280;44557;51.862;19.378;2023-06-26T09:17:16;99071.36;;;27.57;37.19
58785;BME280;44557;51.862;19.378;2023-06-26T09:19:18;99068.23;;;27.65;37.43
58785;BME280;44557;51.862;19.378;2023-06-26T09:21:21;99070.40;;;27.33;37.93
58785;BME280;44557;51.862;19.378;2023-06-26T09:23:26;99063.11;;;28.00;37.50
58785;BME280;44557;51.862;19.378;2023-06-26T09:25:29;99061.29;;;28.03;37.50
58785;BME280;44557;51.862;19.378;2023-06-26T09:27:31;99051.22;;;27.83;37.28
58785;BME280;44557;51.862;19.378;2023-06-26T09:29:33;99052.40;;;28.19;36.51
58785;BME280;44557;51.862;19.378;2023-06-26T09:31:39;99050.80;;;28.29;36.38
58785;BME280;44557;51.862;19.378;2023-06-26T09:33:41;99053.52;;;28.07;36.25
58785;BME280;44557;51.862;19.378;2023-06-26T09:35:45;99049.08;;;27.80;37.05
58785;BME280;44557;51.862;19.378;2023-06-26T09:37:47;99051.60;;;27.50;37.51
58785;BME280;44557;51.862;19.378;2023-06-26T09:39:50;99055.17;;;27.46;37.52
58785;BME280;44557;51.862;19.378;2023-06-26T09:41:52;99050.58;;;27.81;37.19
58785;BME280;44557;51.862;19.378;2023-06-26T09:43:57;99050.48;;;28.09;37.00
58785;BME280;44557;51.862;19.378;2023-06-26T09:46:02;99046.29;;;28.43;36.36
58785;BME280;44557;51.862;19.378;2023-06-26T09:48:04;99045.71;;;28.63;35.58
58785;BME280;44557;51.862;19.378;2023-06-26T09:50:20;99047.12;;;27.79;35.75
58785;BME280;44557;51.862;19.378;2023-06-26T09:52:26;99048.65;;;27.41;36.50
58785;BME280;44557;51.862;19.378;2023-06-26T09:54:28;99047.38;;;27.46;36.94
58785;BME280;44557;51.862;19.378;2023-06-26T09:56:32;99050.96;;;27.61;36.67
58785;BME280;44557;51.862;19.378;2023-06-26T09:58:36;99046.14;;;27.53;36.27
58785;BME280;44557;51.862;19.378;2023-06-26T10:00:39;99045.98;;;27.77;36.32
58785;BME280;44557;51.862;19.378;2023-06-26T10:02:40;99038.57;;;28.15;35.19
58785;BME280;44557;51.862;19.378;2023-06-26T10:04:42;99034.96;;;28.34;34.44
58785;BME280;44557;51.862;19.378;2023-06-26T10:06:49;99029.63;;;28.50;34.67
58785;BME280;44557;51.862;19.378;2023-06-26T10:08:54;99031.32;;;28.27;34.95
58785;BME280;44557;51.862;19.378;2023-06-26T10:10:58;99034.00;;;28.03;34.70
58785;BME280;44557;51.862;19.378;2023-06-26T10:13:04;99028.08;;;28.20;34.65
58785;BME280;44557;51.862;19.378;2023-06-26T10:15:08;99029.04;;;28.62;34.31
58785;BME280;44557;51.862;19.378;2023-06-26T10:17:16;99030.35;;;28.69;33.88
58785;BME280;44557;51.862;19.378;2023-06-26T10:19:21;99029.16;;;28.79;32.85
58785;BME280;44557;51.862;19.378;2023-06-26T10:21:26;99025.77;;;28.99;33.44
58785;BME280;44557;51.862;19.378;2023-06-26T10:23:30;99023.45;;;29.20;33.52
58785;BME280;44557;51.862;19.378;2023-06-26T10:25:37;99015.77;;;29.58;31.29
58785;BME280;44557;51.862;19.378;2023-06-26T10:27:43;99010.02;;;30.10;31.14
58785;BME280;44557;51.862;19.378;2023-06-26T10:29:49;99006.89;;;30.04;31.13
58785;BME280;44557;51.862;19.378;2023-06-26T10:31:56;99001.87;;;30.01;31.51
58785;BME280;44557;51.862;19.378;2023-06-26T10:33:58;98994.47;;;30.13;31.76
58785;BME280;44557;51.862;19.378;2023-06-26T10:36:26;98996.69;;;29.76;32.30
58785;BME280;44557;51.862;19.378;2023-06-26T10:38:48;98993.64;;;29.75;32.25
58785;BME280;44557;51.862;19.378;2023-06-26T10:40:50;98990.23;;;29.95;31.43
58785;BME280;44557;51.862;19.378;2023-06-26T10:43:07;98996.42;;;29.70;31.57
58785;BME280;44557;51.862;19.378;2023-06-26T10:45:22;98996.27;;;29.74;31.53
58785;BME280;44557;51.862;19.378;2023-06-26T10:47:31;98994.10;;;29.37;32.60
58785;BME280;44557;51.862;19.378;2023-06-26T10:49:34;98992.93;;;29.14;33.30